Time;durP1;ratioP1;P1;durP2;ratioP2;P2;SDS_P1;SDS_P2;PMS_P1;PMS_P2;Temp;Humidity;BMP_temperature;BMP_pressure;BME280_temperature;BME280_humidity;BME280_pressure;Samples;Min_cycle;Max_cycle;Signal;HPM_P1;HPM_P2
2022/09/03 00:02:45;;;;;;;0.63;0.50;;;16.30;68.00;;;;;;5041169;28;20029;-73
2022/09/03 00:05:34;;;;;;;0.47;0.40;;;16.30;68.10;;;;;;5021989;28;20512;-73
2022/09/03 00:08:13;;;;;;;0.93;0.50;;;16.30;68.00;;;;;;5022741;28;20036;-73
2022/09/03 00:11:00;;;;;;;0.80;0.52;;;16.30;67.90;;;;;;5022141;28;20052;-73
2022/09/03 00:13:44;;;;;;;0.93;0.43;;;16.30;67.80;;;;;;5020677;28;20049;-73
2022/09/03 00:16:15;;;;;;;2.05;0.68;;;16.30;67.70;;;;;;5001945;28;20124;-73
2022/09/03 00:18:49;;;;;;;3.05;0.65;;;16.30;67.50;;;;;;5003013;28;20053;-73
2022/09/03 00:21:30;;;;;;;0.73;0.47;;;16.30;67.30;;;;;;5002773;28;20092;-73
2022/09/03 00:23:59;;;;;;;1.08;0.60;;;16.30;67.30;;;;;;5002072;28;20026;-73
2022/09/03 00:26:28;;;;;;;0.55;0.55;;;16.30;67.50;;;;;;5001869;28;20038;-73
2022/09/03 00:29:11;;;;;;;0.70;0.70;;;16.20;67.30;;;;;;4982855;28;20038;-73
2022/09/03 00:31:43;;;;;;;1.35;0.70;;;16.20;67.10;;;;;;5002268;28;20164;-73
2022/09/03 00:34:38;;;;;;;0.85;0.43;;;16.20;67.10;;;;;;4986189;28;20532;-73
2022/09/03 00:37:04;;;;;;;0.73;0.47;;;16.20;66.90;;;;;;5002223;28;20554;-73
2022/09/03 00:39:30;;;;;;;1.70;0.80;;;16.20;66.80;;;;;;5001819;28;20042;-73
2022/09/03 00:42:33;;;;;;;0.80;0.52;;;16.20;66.90;;;;;;4999857;28;20030;-73
2022/09/03 00:45:01;;;;;;;1.00;0.50;;;16.20;66.90;;;;;;5003017;28;20078;-73
2022/09/03 00:47:45;;;;;;;2.83;0.75;;;16.20;67.10;;;;;;4998001;28;20066;-73
2022/09/03 00:50:21;;;;;;;0.80;0.60;;;16.10;67.10;;;;;;4998230;28;20042;-73
2022/09/03 00:52:53;;;;;;;;;;;16.20;66.90;;;;;;4999985;28;20037;-73
2022/09/03 00:55:22;;;;;;;0.57;0.52;;;16.10;66.70;;;;;;4997581;28;19949;-73
2022/09/03 00:58:06;;;;;;;0.80;0.50;;;16.10;66.90;;;;;;4981057;28;20033;-73
2022/09/03 01:00:32;;;;;;;0.82;0.70;;;16.10;66.80;;;;;;5002027;28;20041;-73
2022/09/03 01:03:24;;;;;;;0.82;0.50;;;16.10;66.80;;;;;;5003772;28;20049;-73
2022/09/03 01:06:31;;;;;;;1.13;0.50;;;16.10;66.90;;;;;;4994468;28;20464;-73
2022/09/03 01:09:00;;;;;;;0.50;0.50;;;16.10;66.90;;;;;;5005198;28;20034;-72
2022/09/03 01:11:35;;;;;;;1.67;0.80;;;16.10;66.90;;;;;;5002092;28;21546;-72
2022/09/03 01:14:31;;;;;;;0.50;0.50;;;16.10;66.90;;;;;;5006085;28;20581;-74
2022/09/03 01:17:26;;;;;;;2.20;0.40;;;16.00;66.90;;;;;;5016193;28;20041;-73
2022/09/03 01:20:01;;;;;;;0.70;0.70;;;16.00;66.90;;;;;;4997528;28;20048;-73
2022/09/03 01:23:06;;;;;;;1.17;0.50;;;16.00;66.90;;;;;;5007441;28;20084;-74
2022/09/03 01:26:06;;;;;;;1.67;0.52;;;16.00;66.90;;;;;;5015935;28;20520;-73
2022/09/03 01:28:33;;;;;;;1.40;1.10;;;16.00;67.00;;;;;;4988140;28;20045;-73
2022/09/03 01:31:09;;;;;;;1.65;0.50;;;16.00;67.00;;;;;;5014680;28;20058;-73
2022/09/03 01:34:02;;;;;;;1.23;0.50;;;16.00;66.90;;;;;;5015599;28;20364;-74
2022/09/03 01:36:33;;;;;;;0.73;0.50;;;16.00;67.00;;;;;;4997702;28;20567;-74
2022/09/03 01:39:03;;;;;;;0.95;0.60;;;15.90;67.00;;;;;;4997881;28;20042;-73
2022/09/03 01:45:05;;;;;;;1.15;0.70;;;15.90;67.20;;;;;;4996845;28;20037;-73
2022/09/03 01:47:50;;;;;;;0.98;0.60;;;15.90;67.10;;;;;;4993442;28;20041;-75
2022/09/03 01:50:42;;;;;;;0.52;0.50;;;15.90;67.20;;;;;;4997196;28;20039;-73
2022/09/03 01:53:44;;;;;;;1.13;0.52;;;15.90;67.20;;;;;;4962189;28;20038;-74
2022/09/03 01:56:35;;;;;;;0.68;0.50;;;15.90;67.30;;;;;;4925561;29;20036;-74
2022/09/03 01:59:20;;;;;;;0.57;0.55;;;15.90;67.20;;;;;;4928834;29;20100;-74
2022/09/03 02:01:55;;;;;;;1.50;0.82;;;15.80;67.10;;;;;;4926527;29;20067;-73
2022/09/03 02:04:23;;;;;;;;;;;15.90;67.90;;;;;;4925699;29;20066;-73
2022/09/03 02:06:50;;;;;;;0.85;0.55;;;15.80;67.30;;;;;;4925074;29;19926;-73
2022/09/03 02:09:17;;;;;;;1.25;0.75;;;15.80;67.40;;;;;;4925861;29;20242;-73
2022/09/03 02:11:58;;;;;;;1.88;1.00;;;15.80;67.50;;;;;;4911086;29;20039;-74
2022/09/03 02:14:27;;;;;;;1.80;0.55;;;15.80;67.50;;;;;;4970515;28;20050;-73
2022/09/03 02:16:56;;;;;;;0.55;0.43;;;15.80;67.40;;;;;;4980187;28;20074;-74
2022/09/03 02:19:23;;;;;;;0.70;0.70;;;15.80;67.40;;;;;;4981211;28;20039;-74
2022/09/03 02:21:52;;;;;;;1.08;0.70;;;15.80;67.40;;;;;;4979290;28;20456;-73
2022/09/03 02:24:18;;;;;;;1.30;0.75;;;15.80;67.40;;;;;;4979333;28;20035;-74
2022/09/03 02:26:45;;;;;;;0.82;0.70;;;15.70;67.30;;;;;;4980982;28;20041;-73
2022/09/03 02:29:14;;;;;;;0.90;0.43;;;15.70;67.30;;;;;;4979473;28;20037;-74
2022/09/03 02:31:40;;;;;;;1.85;0.60;;;15.80;67.50;;;;;;5041086;28;20029;-74
2022/09/03 02:34:06;;;;;;;0.68;0.60;;;15.80;67.50;;;;;;5038219;28;20038;-74
2022/09/03 02:36:42;;;;;;;0.90;0.50;;;15.70;67.50;;;;;;5039332;28;20033;-74
2022/09/03 02:39:08;;;;;;;1.15;0.70;;;15.70;67.40;;;;;;5044144;28;20040;-74
2022/09/03 02:41:34;;;;;;;2.55;0.80;;;15.70;67.40;;;;;;5040708;28;20029;-74
2022/09/03 02:44:18;;;;;;;0.63;0.63;;;15.70;67.40;;;;;;5041002;28;20064;-74
2022/09/03 02:46:51;;;;;;;2.63;0.90;;;15.80;67.40;;;;;;5039367;28;20037;-74
2022/09/03 02:49:16;;;;;;;0.65;0.60;;;15.70;67.40;;;;;;5039942;28;20064;-74
2022/09/03 02:51:43;;;;;;;0.52;0.52;;;15.70;67.50;;;;;;5044271;28;20075;-73
2022/09/03 02:54:11;;;;;;;0.95;0.40;;;15.70;67.40;;;;;;5041748;28;20625;-74
2022/09/03 02:56:37;;;;;;;1.23;0.60;;;15.70;67.50;;;;;;5040335;28;20037;-74
2022/09/03 02:59:06;;;;;;;0.93;0.50;;;15.70;67.50;;;;;;5042537;28;20040;-74
2022/09/03 03:01:32;;;;;;;1.63;0.60;;;15.70;67.50;;;;;;5038810;28;20045;-74
2022/09/03 03:03:58;;;;;;;2.05;0.70;;;15.70;67.40;;;;;;5039729;28;20038;-74
2022/09/03 03:06:24;;;;;;;1.02;0.50;;;15.70;67.50;;;;;;5043834;28;20507;-73
2022/09/03 03:08:54;;;;;;;0.60;0.60;;;15.70;67.60;;;;;;5044048;28;20029;-74
2022/09/03 03:11:20;;;;;;;1.25;0.52;;;15.70;67.60;;;;;;5042035;28;20029;-74
2022/09/03 03:13:46;;;;;;;1.65;0.77;;;15.60;67.50;;;;;;5038968;28;20037;-74
2022/09/03 03:16:14;;;;;;;0.60;0.50;;;15.70;67.50;;;;;;5026763;28;20486;-74
2022/09/03 03:18:40;;;;;;;1.63;0.70;;;15.70;67.60;;;;;;5040307;28;20102;-74
2022/09/03 03:21:11;;;;;;;1.23;0.80;;;15.70;67.50;;;;;;5036615;28;20036;-74
2022/09/03 03:23:38;;;;;;;3.22;0.55;;;15.70;67.50;;;;;;5040064;28;20621;-74
2022/09/03 03:26:18;;;;;;;1.85;0.70;;;15.70;67.50;;;;;;5039920;28;20029;-75
2022/09/03 03:28:47;;;;;;;0.80;0.60;;;15.70;67.50;;;;;;5040549;28;20605;-74
2022/09/03 03:31:21;;;;;;;1.73;0.57;;;15.70;67.60;;;;;;5039955;28;20030;-74
2022/09/03 03:33:55;;;;;;;1.23;0.80;;;15.70;67.60;;;;;;5041510;28;20086;-74
2022/09/03 03:36:23;;;;;;;0.68;0.60;;;15.70;67.60;;;;;;5038632;28;20150;-75
2022/09/03 03:38:52;;;;;;;0.93;0.52;;;15.70;67.60;;;;;;5041610;28;20519;-75
2022/09/03 03:41:21;;;;;;;1.13;0.80;;;15.70;67.50;;;;;;5039650;28;20029;-75
2022/09/03 03:43:47;;;;;;;0.93;0.70;;;15.70;67.60;;;;;;5041881;28;20063;-74
2022/09/03 03:46:16;;;;;;;1.35;0.50;;;15.70;67.60;;;;;;5040414;28;20041;-75
2022/09/03 03:48:42;;;;;;;0.70;0.70;;;15.70;67.60;;;;;;5041159;28;20057;-74
2022/09/03 03:51:09;;;;;;;1.88;0.43;;;15.70;67.70;;;;;;5037002;28;20037;-75
2022/09/03 03:53:37;;;;;;;0.65;0.40;;;15.70;67.70;;;;;;5042652;28;20033;-74
2022/09/03 03:56:05;;;;;;;1.73;0.70;;;15.70;67.60;;;;;;5040328;28;20038;-74
2022/09/03 03:58:32;;;;;;;0.90;0.65;;;15.70;67.50;;;;;;5040428;28;20034;-74
2022/09/03 04:01:13;;;;;;;1.30;0.73;;;15.80;67.30;;;;;;5037328;28;20040;-75
2022/09/03 04:03:40;;;;;;;0.95;0.80;;;15.70;67.20;;;;;;5038764;28;20064;-74
2022/09/03 04:06:08;;;;;;;0.70;0.60;;;15.70;67.20;;;;;;5038037;28;20029;-75
2022/09/03 04:08:35;;;;;;;0.93;0.60;;;15.70;67.00;;;;;;5040492;28;20036;-74
2022/09/03 04:11:03;;;;;;;0.80;0.60;;;15.70;66.90;;;;;;5022483;28;20491;-73
2022/09/03 04:13:31;;;;;;;0.50;0.50;;;15.70;66.90;;;;;;5038805;28;20082;-73
2022/09/03 04:16:02;;;;;;;1.15;0.70;;;15.70;67.50;;;;;;5035199;28;20045;-73
2022/09/03 04:18:29;;;;;;;0.90;0.60;;;15.70;66.80;;;;;;5030652;28;20473;-73
2022/09/03 04:21:02;;;;;;;1.73;0.80;;;15.70;66.80;;;;;;5042012;28;20377;-73
2022/09/03 04:23:32;;;;;;;0.63;0.63;;;15.70;66.70;;;;;;5039328;28;20040;-73
2022/09/03 04:25:59;;;;;;;0.73;0.60;;;15.70;66.70;;;;;;5040240;28;20464;-73
2022/09/03 04:28:26;;;;;;;0.68;0.60;;;15.70;66.70;;;;;;5039418;28;20029;-73
2022/09/03 04:30:53;;;;;;;0.60;0.60;;;15.70;66.60;;;;;;5037234;28;20029;-73
2022/09/03 04:33:19;;;;;;;2.03;0.90;;;15.70;66.70;;;;;;5040826;28;20048;-73
2022/09/03 04:35:45;;;;;;;1.02;0.73;;;15.70;66.70;;;;;;5039298;28;20037;-73
2022/09/03 04:38:11;;;;;;;0.75;0.70;;;15.70;66.60;;;;;;5041222;28;20043;-74
2022/09/03 04:40:38;;;;;;;0.70;0.70;;;15.70;67.30;;;;;;5042910;28;20273;-74
2022/09/03 04:43:03;;;;;;;1.20;0.75;;;15.70;66.80;;;;;;5044760;28;20753;-74
2022/09/03 04:45:30;;;;;;;0.60;0.60;;;15.80;66.70;;;;;;5043227;28;20039;-73
2022/09/03 04:48:03;;;;;;;1.05;0.85;;;15.80;66.60;;;;;;5029334;28;20179;-74
2022/09/03 04:50:31;;;;;;;1.95;0.80;;;15.80;66.70;;;;;;5042566;28;20066;-74
2022/09/03 04:53:03;;;;;;;0.70;0.70;;;15.80;66.70;;;;;;5044046;28;20565;-74
2022/09/03 04:55:36;;;;;;;2.30;0.60;;;15.90;66.70;;;;;;5043181;28;20044;-74
2022/09/03 04:58:03;;;;;;;1.27;0.60;;;16.00;66.80;;;;;;5044762;28;20033;-73
2022/09/03 05:00:29;;;;;;;3.13;0.70;;;16.10;66.90;;;;;;5044718;28;20571;-74
2022/09/03 05:02:59;;;;;;;1.02;0.90;;;16.30;66.90;;;;;;5040072;28;20033;-74
2022/09/03 05:05:25;;;;;;;0.50;0.50;;;16.50;66.70;;;;;;5042465;28;20127;-74
2022/09/03 05:07:50;;;;;;;1.35;1.00;;;16.80;66.30;;;;;;5044613;28;20124;-75
2022/09/03 05:10:19;;;;;;;1.27;0.80;;;17.00;66.00;;;;;;5042112;28;20065;-74
2022/09/03 05:12:48;;;;;;;0.57;0.57;;;17.20;65.60;;;;;;5044921;28;20064;-74
2022/09/03 05:15:14;;;;;;;0.90;0.55;;;17.40;65.20;;;;;;5041642;28;20041;-75
2022/09/03 05:17:40;;;;;;;1.02;0.43;;;17.60;64.70;;;;;;5042175;28;20119;-75
2022/09/03 05:20:07;;;;;;;1.00;0.60;;;17.80;64.40;;;;;;5041878;28;20491;-75
2022/09/03 05:22:34;;;;;;;0.88;0.70;;;18.00;64.20;;;;;;5042152;28;20500;-75
2022/09/03 05:25:00;;;;;;;1.27;0.60;;;18.20;64.10;;;;;;5044010;28;20067;-75
2022/09/03 05:27:25;;;;;;;1.48;0.60;;;18.30;63.90;;;;;;5042760;28;20516;-75
2022/09/03 05:29:51;;;;;;;0.55;0.50;;;18.50;63.80;;;;;;5041408;28;20404;-75
2022/09/03 05:32:17;;;;;;;0.60;0.60;;;18.60;63.70;;;;;;5043262;28;20025;-75
2022/09/03 05:34:43;;;;;;;2.35;0.50;;;18.80;63.60;;;;;;5029470;28;20041;-74
2022/09/03 05:37:11;;;;;;;0.70;0.60;;;19.00;63.40;;;;;;5068270;28;20389;-74
2022/09/03 05:39:37;;;;;;;1.05;0.57;;;19.10;63.20;;;;;;5041071;28;20106;-74
2022/09/03 05:42:03;;;;;;;0.60;0.50;;;19.20;63.00;;;;;;5045431;28;20033;-75
2022/09/03 05:44:30;;;;;;;0.95;0.75;;;19.40;62.80;;;;;;5042258;28;20037;-75
2022/09/03 05:46:56;;;;;;;0.65;0.50;;;19.50;62.70;;;;;;5038606;28;20033;-75
2022/09/03 05:49:22;;;;;;;1.60;0.68;;;19.70;62.60;;;;;;5042272;28;20033;-74
2022/09/03 05:51:48;;;;;;;2.28;0.60;;;19.90;62.50;;;;;;5028285;28;20029;-74
2022/09/03 05:54:14;;;;;;;2.00;0.60;;;20.00;62.30;;;;;;5028169;28;20550;-74
2022/09/03 05:56:41;;;;;;;0.40;0.40;;;20.10;62.30;;;;;;5043345;28;20037;-74
2022/09/03 05:59:08;;;;;;;1.98;0.57;;;20.30;61.90;;;;;;5023489;28;20037;-76
2022/09/03 06:01:41;;;;;;;1.50;0.50;;;20.40;61.60;;;;;;5040653;28;20091;-75
2022/09/03 06:04:10;;;;;;;2.40;0.70;;;20.60;61.40;;;;;;5041197;28;20037;-75
2022/09/03 06:06:38;;;;;;;1.85;0.63;;;20.70;61.00;;;;;;5041825;28;20030;-76
2022/09/03 06:09:07;;;;;;;1.75;0.60;;;20.90;60.80;;;;;;5043062;28;20191;-77
2022/09/03 06:11:35;;;;;;;1.63;0.65;;;21.00;60.90;;;;;;5043858;28;20487;-75
2022/09/03 06:14:07;;;;;;;1.05;0.40;;;21.10;60.80;;;;;;5042736;28;20407;-75
2022/09/03 06:16:35;;;;;;;1.10;0.50;;;21.30;60.70;;;;;;5043144;28;20080;-74
2022/09/03 06:19:06;;;;;;;0.65;0.50;;;21.40;60.50;;;;;;5040881;28;20033;-76
2022/09/03 06:21:32;;;;;;;0.40;0.40;;;21.60;60.30;;;;;;5040969;28;20026;-76
2022/09/03 06:23:58;;;;;;;0.75;0.47;;;21.70;60.00;;;;;;5039789;28;20037;-76
2022/09/03 06:26:26;;;;;;;2.30;0.50;;;21.80;59.70;;;;;;5041293;28;20520;-76
2022/09/03 06:28:53;;;;;;;0.38;0.30;;;22.10;59.30;;;;;;5042155;28;20092;-75
2022/09/03 06:31:21;;;;;;;1.13;0.30;;;22.40;59.10;;;;;;5040585;28;20037;-76
2022/09/03 06:33:48;;;;;;;0.73;0.40;;;22.70;58.90;;;;;;5041352;28;20030;-74
2022/09/03 06:36:16;;;;;;;0.57;0.35;;;22.90;58.60;;;;;;5025932;28;20052;-74
2022/09/03 06:38:43;;;;;;;0.28;0.28;;;23.00;58.40;;;;;;5055343;28;20037;-74
2022/09/03 06:41:19;;;;;;;1.00;0.50;;;22.90;58.40;;;;;;5041399;28;20122;-74
2022/09/03 06:43:47;;;;;;;0.75;0.40;;;22.80;58.50;;;;;;5040656;28;20034;-81
2022/09/03 06:46:19;;;;;;;1.65;0.50;;;22.80;58.60;;;;;;5037937;28;20056;-76
2022/09/03 06:48:46;;;;;;;0.93;0.30;;;22.80;58.50;;;;;;5039656;28;20037;-75
2022/09/03 06:51:20;;;;;;;0.63;0.35;;;22.80;58.60;;;;;;5054596;28;20112;-77
2022/09/03 06:53:48;;;;;;;0.83;0.40;;;22.80;58.80;;;;;;5040860;28;20044;-75
2022/09/03 06:56:17;;;;;;;0.30;0.30;;;22.90;58.90;;;;;;5040000;28;20043;-76
2022/09/03 06:58:45;;;;;;;0.88;0.50;;;22.80;58.90;;;;;;5044956;28;20048;-76
2022/09/03 07:01:15;;;;;;;0.95;0.50;;;22.90;58.60;;;;;;5065093;28;20029;-76
2022/09/03 07:03:43;;;;;;;0.60;0.40;;;22.90;58.20;;;;;;5040169;28;20036;-76
2022/09/03 07:06:14;;;;;;;0.98;0.40;;;23.00;58.10;;;;;;5040398;28;20414;-76
2022/09/03 07:08:41;;;;;;;2.42;0.40;;;23.10;57.60;;;;;;5048989;28;20038;-74
2022/09/03 07:11:10;;;;;;;1.17;0.60;;;23.20;57.30;;;;;;5039015;28;20061;-74
2022/09/03 07:13:42;;;;;;;0.65;0.40;;;23.30;53.70;;;;;;5041042;28;20784;-73
2022/09/03 07:16:11;;;;;;;2.13;0.50;;;23.30;51.40;;;;;;5038894;28;20052;-71
2022/09/03 07:18:38;;;;;;;0.35;0.35;;;23.30;51.20;;;;;;5038419;28;20045;-75
2022/09/03 07:21:07;;;;;;;1.38;0.60;;;23.30;52.30;;;;;;5040265;28;20040;-76
2022/09/03 07:23:34;;;;;;;7.88;0.50;;;23.30;51.10;;;;;;5038604;28;20037;-75
2022/09/03 07:26:02;;;;;;;2.22;0.50;;;23.30;50.10;;;;;;5039368;28;20075;-74
2022/09/03 07:28:30;;;;;;;4.28;0.50;;;23.20;50.80;;;;;;5037222;28;20531;-74
2022/09/03 07:31:06;;;;;;;3.53;0.52;;;23.20;51.20;;;;;;5038421;28;20056;-75
2022/09/03 07:33:32;;;;;;;;;;;23.20;50.60;;;;;;5039523;28;20040;-74
2022/09/03 07:36:05;;;;;;;1.63;0.50;;;23.20;49.40;;;;;;5040813;28;20414;-74
2022/09/03 07:38:32;;;;;;;3.38;0.70;;;23.10;49.30;;;;;;5039308;28;20062;-75
2022/09/03 07:41:00;;;;;;;3.80;0.95;;;23.10;49.40;;;;;;5025826;28;20037;-74
2022/09/03 07:43:28;;;;;;;2.20;0.95;;;23.10;49.10;;;;;;5042513;28;20099;-75
2022/09/03 07:45:56;;;;;;;2.70;1.15;;;23.10;50.00;;;;;;5065427;28;20044;-74
2022/09/03 07:48:23;;;;;;;5.65;1.40;;;23.10;50.30;;;;;;5038933;28;20037;-74
2022/09/03 07:50:49;;;;;;;1.45;0.60;;;23.10;50.30;;;;;;5054497;28;20037;-73
2022/09/03 07:53:16;;;;;;;3.03;0.77;;;23.10;49.80;;;;;;5039957;28;20048;-73
2022/09/03 07:55:45;;;;;;;4.57;0.98;;;23.10;50.10;;;;;;5039952;28;20029;-74
2022/09/03 07:58:13;;;;;;;5.88;1.05;;;23.20;49.90;;;;;;5040910;28;20037;-74
2022/09/03 08:00:39;;;;;;;5.10;0.70;;;23.20;49.20;;;;;;5017453;28;20033;-76
2022/09/03 08:03:07;;;;;;;1.73;0.80;;;23.10;49.10;;;;;;5046772;28;20032;-74
2022/09/03 08:05:35;;;;;;;3.95;0.55;;;23.10;48.90;;;;;;5047172;28;20033;-75
2022/09/03 08:08:04;;;;;;;1.75;0.52;;;23.00;48.70;;;;;;5032706;28;20384;-77
2022/09/03 08:10:35;;;;;;;5.80;0.88;;;23.00;48.80;;;;;;5049720;28;20037;-76
2022/09/03 08:13:04;;;;;;;3.47;0.73;;;23.00;48.90;;;;;;5050641;28;20491;-77
2022/09/03 08:15:31;;;;;;;3.15;0.77;;;22.90;48.90;;;;;;5048408;28;20037;-77
2022/09/03 08:17:58;;;;;;;3.50;0.65;;;22.90;49.00;;;;;;5039485;28;20543;-76
2022/09/03 08:20:24;;;;;;;2.47;0.55;;;22.80;49.50;;;;;;5045460;28;20029;-76
2022/09/03 08:22:50;;;;;;;1.27;0.55;;;22.80;49.90;;;;;;5051651;28;20032;-76
2022/09/03 08:25:16;;;;;;;1.80;0.40;;;22.80;49.50;;;;;;5061567;28;20037;-76
2022/09/03 08:27:42;;;;;;;2.97;0.80;;;22.80;49.70;;;;;;5036365;28;20037;-75
2022/09/03 08:30:10;;;;;;;3.78;0.55;;;22.70;49.30;;;;;;5042021;28;20036;-75
2022/09/03 08:32:39;;;;;;;4.38;0.70;;;22.70;49.70;;;;;;5051603;28;20037;-77
2022/09/03 08:35:08;;;;;;;1.80;0.50;;;22.70;50.00;;;;;;5026515;28;20360;-77
2022/09/03 08:37:34;;;;;;;2.25;0.82;;;22.70;49.20;;;;;;5042863;28;20029;-78
2022/09/03 08:40:00;;;;;;;2.95;0.60;;;22.60;49.50;;;;;;5047240;28;20531;-78
2022/09/03 08:42:38;;;;;;;6.22;0.80;;;22.50;49.80;;;;;;5038500;28;20029;-79
2022/09/03 08:45:08;;;;;;;3.30;1.02;;;22.50;50.10;;;;;;5039356;28;20071;-78
2022/09/03 08:47:47;;;;;;;4.90;0.60;;;22.50;49.90;;;;;;5038952;28;20032;-81
2022/09/03 08:50:28;;;;;;;2.38;0.88;;;22.40;49.20;;;;;;5037091;28;20600;-78
2022/09/03 08:53:10;;;;;;;1.60;0.68;;;22.30;49.80;;;;;;5036262;28;20041;-78
2022/09/03 08:55:46;;;;;;;3.90;0.80;;;22.30;49.80;;;;;;5037873;28;20076;-81
2022/09/03 08:58:20;;;;;;;2.13;0.88;;;22.20;50.20;;;;;;5038997;28;20097;-77
2022/09/03 09:01:05;;;;;;;1.90;0.67;;;22.20;49.40;;;;;;5028531;28;20393;-75
2022/09/03 09:03:49;;;;;;;3.72;0.68;;;22.10;49.50;;;;;;5041499;28;20056;-76
2022/09/03 09:06:38;;;;;;;3.17;0.80;;;22.00;49.70;;;;;;5043455;28;20037;-75
2022/09/03 09:09:20;;;;;;;4.50;0.77;;;22.00;49.80;;;;;;5051974;28;20033;-74
2022/09/03 09:11:58;;;;;;;2.22;0.70;;;21.90;49.90;;;;;;5041704;28;20044;-74
2022/09/03 09:14:47;;;;;;;5.93;0.88;;;21.90;49.90;;;;;;5038290;28;20040;-74
2022/09/03 09:17:22;;;;;;;5.18;0.77;;;21.80;49.40;;;;;;5041088;28;20045;-74
2022/09/03 09:20:03;;;;;;;7.22;0.88;;;21.80;50.10;;;;;;5038522;28;20017;-74
2022/09/03 09:22:42;;;;;;;1.92;0.95;;;21.80;50.10;;;;;;5043090;28;20187;-76
2022/09/03 09:25:25;;;;;;;0.68;0.40;;;21.70;50.10;;;;;;5048048;28;20090;-77
2022/09/03 09:27:59;;;;;;;1.60;0.68;;;21.70;50.50;;;;;;5059778;28;20507;-75
2022/09/03 09:30:27;;;;;;;3.40;0.70;;;21.70;50.50;;;;;;5037932;28;20122;-74
2022/09/03 09:32:54;;;;;;;2.88;0.50;;;21.60;50.00;;;;;;5042800;28;20561;-79
2022/09/03 09:35:20;;;;;;;0.98;0.50;;;21.60;49.50;;;;;;5028968;28;20025;-76
2022/09/03 09:37:48;;;;;;;1.67;0.40;;;21.60;49.20;;;;;;5040429;28;20503;-78
2022/09/03 09:40:25;;;;;;;3.53;0.60;;;21.60;49.40;;;;;;5055184;28;20540;-76
2022/09/03 09:42:57;;;;;;;2.60;0.50;;;21.60;49.50;;;;;;5057766;28;20085;-76
2022/09/03 09:45:23;;;;;;;4.75;0.82;;;21.60;50.00;;;;;;5042646;28;20041;-76
2022/09/03 09:47:55;;;;;;;2.47;0.80;;;21.60;50.50;;;;;;5041682;28;20055;-77
2022/09/03 09:50:22;;;;;;;5.18;0.68;;;21.60;50.60;;;;;;5023739;28;20044;-76
2022/09/03 09:52:58;;;;;;;3.83;0.60;;;21.60;50.50;;;;;;5042000;28;20625;-76
2022/09/03 09:55:25;;;;;;;5.82;0.70;;;21.50;50.10;;;;;;5041589;28;20064;-73
2022/09/03 09:58:07;;;;;;;1.15;0.70;;;21.50;50.50;;;;;;5039768;28;20033;-73
2022/09/03 10:00:36;;;;;;;8.48;1.13;;;21.50;50.40;;;;;;5041008;28;20605;-82
2022/09/03 10:03:09;;;;;;;10.20;1.10;;;21.50;50.40;;;;;;5038376;28;20092;-75
2022/09/03 10:05:38;;;;;;;4.10;0.82;;;21.60;50.80;;;;;;5041565;28;20463;-81
2022/09/03 10:08:06;;;;;;;8.48;1.30;;;21.70;50.80;;;;;;5043272;28;20167;-86
2022/09/03 10:10:43;;;;;;;4.72;0.95;;;21.70;50.50;;;;;;5038246;28;20034;-79
2022/09/03 10:13:25;;;;;;;4.82;0.90;;;21.70;50.40;;;;;;5041414;28;20037;-84
2022/09/03 10:15:59;;;;;;;6.22;1.33;;;21.70;50.30;;;;;;5040930;28;20572;-82
2022/09/03 10:18:42;;;;;;;7.03;1.05;;;21.70;50.80;;;;;;5040825;28;20049;-80
2022/09/03 10:21:30;;;;;;;1.77;0.50;;;21.80;51.10;;;;;;5026661;28;20033;-79
2022/09/03 10:24:30;;;;;;;2.10;0.60;;;21.80;51.10;;;;;;5040488;28;20551;-77
2022/09/03 10:26:57;;;;;;;3.95;0.60;;;21.80;50.60;;;;;;5026644;28;20037;-81
2022/09/03 10:29:28;;;;;;;4.60;0.80;;;21.80;50.40;;;;;;5040316;28;20028;-83
2022/09/03 10:32:01;;;;;;;2.95;1.05;;;21.80;50.30;;;;;;5040663;28;20029;-81
2022/09/03 10:34:37;;;;;;;5.40;0.80;;;21.80;50.30;;;;;;5042707;28;20037;-84
2022/09/03 10:37:26;;;;;;;5.82;1.00;;;21.80;49.30;;;;;;5041067;28;20389;-81
2022/09/03 10:40:29;;;;;;;3.38;0.80;;;21.80;48.80;;;;;;5040444;28;20446;-82
2022/09/03 10:43:07;;;;;;;3.85;0.93;;;21.80;49.20;;;;;;5040400;28;20033;-80
2022/09/03 10:45:42;;;;;;;2.95;1.15;;;21.80;49.20;;;;;;5042454;28;20048;-79
2022/09/03 10:48:41;;;;;;;4.15;1.05;;;21.80;49.10;;;;;;5040875;28;20397;-83
2022/09/03 10:51:32;;;;;;;7.15;1.33;;;21.70;50.80;;;;;;5038839;28;20063;-81
2022/09/03 10:54:10;;;;;;;6.18;1.02;;;21.70;50.50;;;;;;5040666;28;20041;-84
2022/09/03 10:57:01;;;;;;;5.18;0.80;;;21.80;50.80;;;;;;5040260;28;20032;-81
2022/09/03 10:59:50;;;;;;;5.25;0.85;;;21.80;51.00;;;;;;5039976;28;20106;-86
2022/09/03 11:03:03;;;;;;;5.47;1.30;;;21.70;50.70;;;;;;5024220;28;20037;-80
2022/09/03 11:05:35;;;;;;;6.43;1.83;;;21.70;50.70;;;;;;5026337;28;20056;-83
2022/09/03 11:08:09;;;;;;;8.30;1.88;;;21.70;51.70;;;;;;5039887;28;20124;-81
2022/09/03 11:10:48;;;;;;;7.78;1.70;;;21.70;53.30;;;;;;5040755;28;20052;-86
2022/09/03 11:13:42;;;;;;;6.05;1.48;;;21.70;54.30;;;;;;5039250;28;20063;-82
2022/09/03 11:16:31;;;;;;;4.13;1.25;;;21.80;54.10;;;;;;5038821;28;20095;-83
2022/09/03 11:19:05;;;;;;;13.27;1.60;;;21.80;54.10;;;;;;5039333;28;20044;-82
2022/09/03 11:21:34;;;;;;;4.25;1.17;;;21.70;53.80;;;;;;5039769;28;20039;-83
2022/09/03 11:24:14;;;;;;;4.88;1.27;;;21.80;54.00;;;;;;5039521;28;20999;-82
2022/09/03 11:26:47;;;;;;;4.78;1.02;;;21.80;54.20;;;;;;5047037;28;20033;-79
2022/09/03 11:29:20;;;;;;;4.47;1.20;;;21.80;53.80;;;;;;5025093;28;20086;-82
2022/09/03 11:32:10;;;;;;;7.20;1.65;;;21.80;53.50;;;;;;5039022;28;20032;-79
2022/09/03 11:34:51;;;;;;;9.93;1.13;;;21.80;53.60;;;;;;5037220;28;20156;-82
2022/09/03 11:37:29;;;;;;;3.30;1.10;;;21.80;53.30;;;;;;5041132;28;20119;-82
2022/09/03 11:40:18;;;;;;;4.00;1.27;;;21.80;53.40;;;;;;5032834;28;20484;-82
2022/09/03 11:42:44;;;;;;;3.75;1.02;;;21.80;53.00;;;;;;5032474;28;20037;-86
2022/09/03 11:45:13;;;;;;;4.82;0.90;;;21.80;52.80;;;;;;5064040;28;20416;-83
2022/09/03 11:47:42;;;;;;;4.85;1.20;;;21.80;52.40;;;;;;5038942;28;20419;-83
2022/09/03 11:50:29;;;;;;;5.47;1.17;;;21.80;52.40;;;;;;5038511;28;20090;-83
2022/09/03 11:53:34;;;;;;;6.57;1.65;;;21.70;52.10;;;;;;5038273;28;20075;-84
2022/09/03 11:56:06;;;;;;;6.28;0.90;;;21.60;52.70;;;;;;5065452;28;20044;-87
2022/09/03 11:58:37;;;;;;;2.95;1.10;;;21.60;53.30;;;;;;5040519;28;20084;-83
2022/09/03 12:01:09;;;;;;;6.32;1.42;;;21.50;53.30;;;;;;5038752;28;20035;-84
2022/09/03 12:03:52;;;;;;;5.97;1.00;;;21.50;52.70;;;;;;5040417;28;20538;-88
2022/09/03 12:06:36;;;;;;;7.30;1.10;;;21.50;52.40;;;;;;5044845;28;20037;-82
2022/09/03 12:09:32;;;;;;;19.67;1.73;;;21.40;52.70;;;;;;5025250;28;20044;-82
2022/09/03 12:12:08;;;;;;;8.98;1.20;;;21.50;54.90;;;;;;5025173;28;20399;-87
2022/09/03 12:14:46;;;;;;;7.60;1.17;;;21.60;52.20;;;;;;5041984;28;20083;-88
2022/09/03 12:17:12;;;;;;;5.72;0.95;;;21.70;52.70;;;;;;5041636;28;20527;-87
2022/09/03 12:19:44;;;;;;;5.53;0.93;;;21.60;51.80;;;;;;5039933;28;20067;-87
2022/09/03 12:22:15;;;;;;;4.93;0.65;;;21.70;51.30;;;;;;5040490;28;20037;-88
2022/09/03 12:24:43;;;;;;;1.92;0.80;;;21.70;51.10;;;;;;5039594;28;20067;-83
2022/09/03 12:27:21;;;;;;;5.15;0.73;;;21.70;50.60;;;;;;5039064;28;20038;-87
2022/09/03 12:30:02;;;;;;;2.70;0.80;;;21.60;50.00;;;;;;5041575;28;20507;-87
2022/09/03 12:32:39;;;;;;;1.55;0.70;;;21.60;49.80;;;;;;5064088;28;20095;-85
2022/09/03 12:35:23;;;;;;;2.72;0.82;;;21.60;50.40;;;;;;5039321;28;20124;-84
2022/09/03 12:37:51;;;;;;;1.77;0.52;;;21.50;50.10;;;;;;5039053;28;20053;-87
2022/09/03 12:40:22;;;;;;;2.63;0.88;;;21.50;50.40;;;;;;5038843;28;20105;-87
2022/09/03 12:42:49;;;;;;;2.33;0.57;;;21.50;50.40;;;;;;5038867;28;20079;-87
2022/09/03 12:45:24;;;;;;;1.77;0.70;;;21.50;50.60;;;;;;5036473;28;22009;-86
2022/09/03 12:47:52;;;;;;;2.83;0.50;;;21.50;50.90;;;;;;5039731;28;20060;-86
2022/09/03 12:50:20;;;;;;;3.72;0.55;;;21.50;51.20;;;;;;5039900;28;20530;-87
2022/09/03 12:53:01;;;;;;;2.55;0.52;;;21.50;51.10;;;;;;5038258;28;20407;-86
2022/09/03 12:55:40;;;;;;;3.10;0.63;;;21.50;50.70;;;;;;5040628;28;20507;-86
2022/09/03 12:58:12;;;;;;;2.88;0.80;;;21.50;50.90;;;;;;5068267;28;20348;-86
2022/09/03 13:00:48;;;;;;;1.65;0.80;;;21.50;51.20;;;;;;5039816;28;20086;-87
2022/09/03 13:03:21;;;;;;;1.48;0.80;;;21.50;50.90;;;;;;5056300;28;20052;-86
2022/09/03 13:05:56;;;;;;;1.73;0.65;;;21.50;50.70;;;;;;5040080;28;20106;-87
2022/09/03 13:08:38;;;;;;;1.80;0.90;;;21.50;50.90;;;;;;5042656;28;21131;-84
2022/09/03 13:11:04;;;;;;;1.10;0.65;;;21.50;50.70;;;;;;5044218;28;20064;-86
2022/09/03 13:13:35;;;;;;;1.38;0.68;;;21.50;50.60;;;;;;5045893;28;20132;-84
2022/09/03 13:16:19;;;;;;;0.90;0.60;;;21.40;50.40;;;;;;5045912;28;20766;-83
2022/09/03 13:18:48;;;;;;;0.95;0.65;;;21.50;50.40;;;;;;5042631;28;20041;-86
2022/09/03 13:21:26;;;;;;;0.85;0.65;;;21.40;50.60;;;;;;5041868;28;20039;-84
2022/09/03 13:24:05;;;;;;;2.13;0.88;;;21.40;50.10;;;;;;5041707;28;20071;-85